Ilasco, Missouri
Current Conditions -  °F | °C
As of 4:54 AM on Sunday 23 Nov 2014 (Local Time) from KUIN Reporting Station
Light Rain Light Rain  
Wind Chill: 10°   Ceiling: 8000
Heat Index: 10°   Visibility: 8mi
Dew Point:   Wind: 8mph
Humidity: 89%   Direction: 150°SSE
Pressure: 29.67"   Gusts: NA
Location:  39.7145°N, 91.4209°W
Report Text: KUIN 231054Z AUTO 15007KT 8SM -RA SCT070 OVC080 10/08 A2967 RMK AO2 RAB41 SLP046 P0000 T01000083
Loading
Personal Weather Stations






























Interactive Weather Map New forecast layout! Learn more

10-Day Weather Forecast

Advertisements
Track Severe Weather on mobile